createdAt,value
2017-01-20T00:00:03.277Z,99.99
2017-01-20T00:01:14.665Z,99.99
2017-01-20T00:02:26.055Z,99.99
2017-01-20T00:03:37.455Z,99.99
2017-01-20T00:04:48.901Z,99.99
2017-01-20T00:06:00.288Z,99.99
2017-01-20T00:07:11.697Z,99.99
2017-01-20T00:08:23.286Z,99.99
2017-01-20T00:09:34.690Z,99.99
2017-01-20T00:10:46.136Z,99.99
2017-01-20T00:11:57.520Z,99.99
2017-01-20T00:13:08.916Z,99.99
2017-01-20T00:14:20.315Z,99.99
2017-01-20T00:15:31.917Z,99.99
2017-01-20T00:16:43.574Z,99.99
2017-01-20T00:17:54.955Z,99.99
2017-01-20T00:19:06.373Z,99.99
2017-01-20T00:20:17.759Z,99.99
2017-01-20T00:21:29.155Z,99.99
2017-01-20T00:22:40.600Z,99.99
2017-01-20T00:23:52.188Z,99.99
2017-01-20T00:25:03.586Z,99.99
2017-01-20T00:26:14.977Z,99.99
2017-01-20T00:27:26.373Z,99.99
2017-01-20T00:28:37.813Z,99.99
2017-01-20T00:29:49.206Z,99.99
2017-01-20T00:31:00.804Z,99.99
2017-01-20T00:32:12.194Z,99.99
2017-01-20T00:33:23.589Z,99.99
2017-01-20T00:34:35.034Z,99.99
2017-01-20T00:35:46.625Z,99.99
2017-01-20T00:36:58.023Z,99.99
2017-01-20T00:38:09.624Z,99.99
2017-01-20T00:39:21.022Z,99.99
2017-01-20T00:40:32.672Z,99.99
2017-01-20T00:41:44.069Z,99.99
2017-01-20T00:42:55.470Z,99.99
2017-01-20T00:44:06.864Z,99.99
2017-01-20T00:45:18.247Z,99.99
2017-01-20T00:46:29.686Z,99.99
2017-01-20T00:47:41.080Z,99.99
2017-01-20T00:48:52.472Z,99.99
2017-01-20T00:50:03.866Z,99.99
2017-01-20T00:51:15.265Z,99.99
2017-01-20T00:52:26.712Z,99.99
2017-01-20T00:53:38.108Z,99.99
2017-01-20T00:54:49.528Z,99.99
2017-01-20T00:56:00.928Z,99.99
2017-01-20T00:57:12.330Z,99.99
2017-01-20T00:58:23.971Z,99.99
2017-01-20T00:59:35.361Z,99.99
2017-01-20T01:00:46.754Z,99.99
2017-01-20T01:01:58.156Z,99.99
2017-01-20T01:03:09.545Z,99.99
2017-01-20T01:04:20.982Z,99.99
2017-01-20T01:05:32.372Z,99.99
2017-01-20T01:06:43.766Z,99.99
2017-01-20T01:07:55.163Z,99.99
2017-01-20T01:09:06.549Z,99.99
2017-01-20T01:10:18.000Z,99.99
2017-01-20T01:11:29.387Z,99.99
2017-01-20T01:12:40.790Z,99.99
2017-01-20T01:13:52.180Z,99.99
2017-01-20T01:15:03.573Z,99.99
2017-01-20T01:16:15.019Z,99.99
2017-01-20T01:17:26.413Z,99.99
2017-01-20T01:18:37.805Z,99.99
2017-01-20T01:19:49.194Z,99.99
2017-01-20T01:21:00.586Z,99.99
2017-01-20T01:22:12.026Z,99.99
2017-01-20T01:23:23.621Z,99.99
2017-01-20T01:24:35.214Z,99.99
2017-01-20T01:25:46.807Z,99.99
2017-01-20T01:26:58.410Z,99.99
2017-01-20T01:28:09.854Z,99.99
2017-01-20T01:29:21.471Z,99.99
2017-01-20T01:30:32.866Z,99.99
2017-01-20T01:31:44.260Z,99.99
2017-01-20T01:32:55.654Z,99.99
2017-01-20T01:34:07.098Z,99.99
2017-01-20T01:35:18.496Z,99.99
2017-01-20T01:36:29.891Z,99.99
2017-01-20T01:37:41.286Z,99.99
2017-01-20T01:38:52.678Z,99.99
2017-01-20T01:40:04.132Z,99.99
2017-01-20T01:41:15.526Z,99.99
2017-01-20T01:42:27.118Z,99.99
2017-01-20T01:43:38.507Z,99.99
2017-01-20T01:44:49.896Z,99.99
2017-01-20T01:46:01.539Z,99.99
2017-01-20T01:47:13.140Z,99.99
2017-01-20T01:48:24.535Z,99.99
2017-01-20T01:49:35.923Z,99.99
2017-01-20T01:50:47.318Z,99.99
2017-01-20T01:51:58.764Z,99.99
2017-01-20T01:53:10.155Z,99.99
2017-01-20T01:54:21.546Z,99.99
2017-01-20T01:55:32.934Z,99.99
2017-01-20T01:56:44.323Z,99.99
2017-01-20T01:57:56.171Z,99.99
2017-01-20T01:59:07.565Z,99.99
2017-01-20T02:00:18.960Z,99.99
2017-01-20T02:01:30.358Z,99.99
2017-01-20T02:02:41.756Z,99.99
2017-01-20T02:03:53.201Z,99.99
2017-01-20T02:05:04.604Z,99.99
2017-01-20T02:06:15.988Z,99.99
2017-01-20T02:07:27.381Z,99.99
2017-01-20T02:08:38.769Z,99.99
2017-01-20T02:09:50.217Z,99.99
2017-01-20T02:11:01.813Z,99.99
2017-01-20T02:12:13.206Z,99.99
2017-01-20T02:13:24.800Z,99.99
2017-01-20T02:14:36.195Z,99.99
2017-01-20T02:15:47.661Z,99.99
2017-01-20T02:16:59.054Z,99.99
2017-01-20T02:18:10.441Z,99.99
2017-01-20T02:19:22.062Z,99.99
2017-01-20T02:20:33.457Z,99.99
2017-01-20T02:21:44.898Z,99.99
2017-01-20T02:22:56.292Z,99.99
2017-01-20T02:24:07.687Z,99.99
2017-01-20T02:25:19.077Z,99.99
2017-01-20T02:26:30.469Z,99.99
2017-01-20T02:27:41.912Z,99.99
2017-01-20T02:28:53.295Z,99.99
2017-01-20T02:30:04.693Z,99.99
2017-01-20T02:31:16.091Z,99.99
2017-01-20T02:32:27.487Z,99.99
2017-01-20T02:33:39.133Z,99.99
2017-01-20T02:34:50.527Z,99.99
2017-01-20T02:36:01.936Z,99.99
2017-01-20T02:37:13.535Z,99.99
2017-01-20T02:38:24.925Z,99.99
2017-01-20T02:39:36.365Z,99.99
2017-01-20T02:40:47.957Z,99.99
2017-01-20T02:41:59.351Z,99.99
2017-01-20T02:43:10.950Z,99.99
2017-01-20T02:44:22.349Z,99.99
2017-01-20T02:45:34.002Z,99.99
2017-01-20T02:46:45.393Z,99.99
2017-01-20T02:47:56.792Z,99.99
2017-01-20T02:49:08.379Z,99.99
2017-01-20T02:50:19.772Z,99.99
2017-01-20T02:51:31.205Z,99.99
2017-01-20T02:52:42.596Z,99.99
2017-01-20T02:53:53.986Z,99.99
2017-01-20T02:55:05.375Z,99.99
2017-01-20T02:56:16.763Z,99.99
2017-01-20T02:57:28.228Z,99.99
2017-01-20T02:58:39.627Z,99.99
2017-01-20T02:59:51.020Z,99.99
2017-01-20T03:01:02.417Z,99.99
2017-01-20T03:02:13.814Z,99.99
2017-01-20T03:03:25.258Z,99.99
2017-01-20T03:04:36.846Z,99.99
2017-01-20T03:05:48.244Z,99.99
2017-01-20T03:06:59.635Z,99.99
2017-01-20T03:08:11.231Z,99.99
2017-01-20T03:09:22.667Z,99.99
2017-01-20T03:10:34.053Z,99.99
2017-01-20T03:11:45.453Z,99.99
2017-01-20T03:12:56.857Z,99.99
2017-01-20T03:14:08.255Z,99.99
2017-01-20T03:15:19.697Z,99.99
2017-01-20T03:16:31.293Z,99.99
2017-01-20T03:17:42.687Z,99.99
2017-01-20T03:18:54.074Z,99.99
2017-01-20T03:20:05.456Z,99.99
2017-01-20T03:21:17.096Z,99.99
2017-01-20T03:22:28.484Z,99.99
2017-01-20T03:23:39.869Z,99.99
2017-01-20T03:24:51.265Z,99.99
2017-01-20T03:26:02.660Z,99.99
2017-01-20T03:27:14.112Z,99.99
2017-01-20T03:28:25.537Z,99.99
2017-01-20T03:29:37.136Z,99.99
2017-01-20T03:30:48.729Z,99.99
2017-01-20T03:32:00.320Z,99.99
2017-01-20T03:33:11.766Z,99.99
2017-01-20T03:34:23.179Z,99.99
2017-01-20T03:35:34.565Z,99.99
2017-01-20T03:36:45.949Z,99.99
2017-01-20T03:37:57.344Z,99.99
2017-01-20T03:39:08.788Z,99.99
2017-01-20T03:40:20.185Z,99.99
2017-01-20T03:41:31.573Z,99.99
2017-01-20T03:42:42.965Z,99.99
2017-01-20T03:43:54.353Z,99.99
2017-01-20T03:45:06.005Z,99.99
2017-01-20T03:46:17.796Z,99.99
2017-01-20T03:47:29.187Z,99.99
2017-01-20T03:48:40.573Z,99.99
2017-01-20T03:49:51.967Z,99.99
2017-01-20T03:51:03.415Z,99.99
2017-01-20T03:52:14.818Z,99.99
2017-01-20T03:53:26.209Z,99.99
2017-01-20T03:54:37.598Z,99.99
2017-01-20T03:55:49.390Z,99.99
2017-01-20T03:57:00.830Z,99.99
2017-01-20T03:58:12.221Z,99.99
2017-01-20T03:59:23.808Z,99.99
2017-01-20T04:00:35.198Z,99.99
2017-01-20T04:01:46.587Z,99.99
2017-01-20T04:02:58.230Z,99.99
2017-01-20T04:04:09.630Z,99.99
2017-01-20T04:05:21.044Z,99.99
2017-01-20T04:06:32.435Z,99.99
2017-01-20T04:07:44.036Z,99.99
2017-01-20T04:08:55.497Z,99.99
2017-01-20T04:10:07.092Z,99.99
2017-01-20T04:11:18.492Z,99.99
2017-01-20T04:12:29.884Z,99.99
2017-01-20T04:13:41.291Z,99.99
2017-01-20T04:14:52.738Z,99.99
2017-01-20T04:16:04.137Z,99.99
2017-01-20T04:17:15.524Z,99.99
2017-01-20T04:18:26.928Z,99.99
2017-01-20T04:19:38.324Z,99.99
2017-01-20T04:20:49.781Z,99.99
2017-01-20T04:22:01.179Z,99.99
2017-01-20T04:23:12.579Z,99.99
2017-01-20T04:24:24.172Z,99.99
2017-01-20T04:25:35.562Z,99.99
2017-01-20T04:26:47.008Z,99.99
2017-01-20T04:27:58.427Z,99.99
2017-01-20T04:29:09.816Z,99.99
2017-01-20T04:30:21.233Z,99.99
2017-01-20T04:31:32.617Z,99.99
2017-01-20T04:32:44.059Z,99.99
2017-01-20T04:33:55.854Z,99.99
2017-01-20T04:35:07.251Z,99.99
2017-01-20T04:36:18.642Z,99.99
2017-01-20T04:37:30.033Z,99.99
2017-01-20T04:38:41.494Z,99.99
2017-01-20T04:39:52.882Z,99.99
2017-01-20T04:41:04.272Z,99.99
2017-01-20T04:42:15.666Z,99.99
2017-01-20T04:43:27.071Z,99.99
2017-01-20T04:44:38.518Z,99.99
2017-01-20T04:45:49.908Z,99.99
2017-01-20T04:47:01.300Z,99.99
2017-01-20T04:48:12.692Z,99.99
2017-01-20T04:49:24.089Z,99.99
2017-01-20T04:50:35.536Z,99.99
2017-01-20T04:51:46.928Z,99.99
2017-01-20T04:52:58.326Z,99.99
2017-01-20T04:54:09.717Z,99.99
2017-01-20T04:55:21.107Z,99.99
2017-01-20T04:56:32.572Z,99.99
2017-01-20T04:57:43.980Z,99.99
2017-01-20T04:58:55.366Z,99.99
2017-01-20T05:00:06.963Z,99.99
2017-01-20T05:01:18.359Z,99.99
2017-01-20T05:02:29.798Z,99.99
2017-01-20T05:03:41.181Z,99.99
2017-01-20T05:04:52.573Z,99.99
2017-01-20T05:06:04.366Z,99.99
2017-01-20T05:07:15.959Z,99.99
2017-01-20T05:08:27.406Z,99.99
2017-01-20T05:09:38.808Z,99.99
2017-01-20T05:10:50.407Z,99.99
2017-01-20T05:12:01.803Z,99.99
2017-01-20T05:13:13.399Z,99.99
2017-01-20T05:14:24.878Z,99.99
2017-01-20T05:15:36.266Z,99.99
2017-01-20T05:16:47.672Z,99.99
2017-01-20T05:17:59.066Z,99.99
2017-01-20T05:19:10.455Z,99.99
2017-01-20T05:20:21.908Z,99.99
2017-01-20T05:21:33.328Z,99.99
2017-01-20T05:22:44.919Z,99.99
2017-01-20T05:23:56.311Z,99.99
2017-01-20T05:25:07.909Z,99.99
2017-01-20T05:26:19.350Z,99.99
2017-01-20T05:27:30.746Z,99.99
2017-01-20T05:28:42.144Z,99.99
2017-01-20T05:29:53.736Z,99.99
2017-01-20T05:31:05.133Z,99.99
2017-01-20T05:32:16.569Z,99.99
2017-01-20T05:33:27.982Z,99.99
2017-01-20T05:34:39.371Z,99.99
2017-01-20T05:35:50.961Z,99.99
2017-01-20T05:37:02.561Z,99.99
2017-01-20T05:38:14.415Z,99.99
2017-01-20T05:39:25.804Z,99.99
2017-01-20T05:40:37.205Z,99.99
2017-01-20T05:41:49.001Z,99.99
2017-01-20T05:43:00.408Z,99.99
2017-01-20T05:44:11.855Z,99.99
2017-01-20T05:45:23.249Z,99.99
2017-01-20T05:46:35.049Z,99.99
2017-01-20T05:47:46.443Z,99.99
2017-01-20T05:48:57.831Z,99.99
2017-01-20T05:50:09.284Z,99.99
2017-01-20T05:51:20.680Z,99.99
2017-01-20T05:52:32.080Z,99.99
2017-01-20T05:53:43.482Z,99.99
2017-01-20T05:54:54.875Z,99.99
2017-01-20T05:56:06.319Z,99.99
2017-01-20T05:57:17.916Z,99.99
2017-01-20T05:58:29.314Z,99.99
2017-01-20T05:59:40.736Z,99.99
2017-01-20T06:00:52.130Z,99.99
2017-01-20T06:02:03.573Z,99.99
2017-01-20T06:03:14.969Z,99.99
2017-01-20T06:04:26.361Z,99.99
2017-01-20T06:05:37.759Z,99.99
2017-01-20T06:06:49.154Z,99.99
2017-01-20T06:08:00.795Z,99.99
2017-01-20T06:09:12.184Z,99.99
2017-01-20T06:10:23.773Z,99.99
2017-01-20T06:11:35.375Z,99.99
2017-01-20T06:12:46.779Z,99.99
2017-01-20T06:13:58.221Z,99.99
2017-01-20T06:15:09.625Z,99.99
2017-01-20T06:16:21.223Z,99.99
2017-01-20T06:17:32.619Z,99.99
2017-01-20T06:18:44.022Z,99.99
2017-01-20T06:19:55.471Z,99.99
2017-01-20T06:21:07.068Z,99.99
2017-01-20T06:22:18.663Z,99.99
2017-01-20T06:23:30.060Z,99.99
2017-01-20T06:24:41.446Z,99.99
2017-01-20T06:25:53.088Z,99.99
2017-01-20T06:27:04.493Z,99.99
2017-01-20T06:28:16.096Z,99.99
2017-01-20T06:29:27.889Z,99.99
2017-01-20T06:30:39.278Z,99.99
2017-01-20T06:31:50.723Z,99.99
2017-01-20T06:33:02.155Z,99.99
2017-01-20T06:34:13.554Z,99.99
2017-01-20T06:35:24.953Z,99.99
2017-01-20T06:36:36.546Z,99.99
2017-01-20T06:37:47.993Z,99.99
2017-01-20T06:38:59.386Z,99.99
2017-01-20T06:40:10.784Z,99.99
2017-01-20T06:41:22.584Z,99.99
2017-01-20T06:42:33.991Z,99.99
2017-01-20T06:43:45.437Z,99.99
2017-01-20T06:44:56.838Z,99.99
2017-01-20T06:46:08.233Z,99.99
2017-01-20T06:47:19.632Z,99.99
2017-01-20T06:48:31.024Z,99.99
2017-01-20T06:49:42.477Z,99.99
2017-01-20T06:50:53.882Z,99.99
2017-01-20T06:52:05.483Z,99.99
2017-01-20T06:53:16.871Z,99.99
2017-01-20T06:54:28.274Z,99.99
2017-01-20T06:55:39.921Z,99.99
2017-01-20T06:56:51.324Z,99.99
2017-01-20T06:58:02.717Z,99.99
2017-01-20T06:59:14.109Z,99.99
2017-01-20T07:00:25.704Z,99.99
2017-01-20T07:01:37.153Z,99.99
2017-01-20T07:02:48.545Z,99.99
2017-01-20T07:03:59.939Z,99.99
2017-01-20T07:05:11.334Z,99.99
2017-01-20T07:06:22.918Z,99.99
2017-01-20T07:07:34.358Z,99.99
2017-01-20T07:08:45.775Z,99.99
2017-01-20T07:09:57.170Z,99.99
2017-01-20T07:11:08.571Z,99.99
2017-01-20T07:12:20.171Z,99.99
2017-01-20T07:13:31.638Z,99.99
2017-01-20T07:14:43.031Z,99.99
2017-01-20T07:15:54.454Z,99.99
2017-01-20T07:17:05.857Z,99.99
2017-01-20T07:18:17.252Z,99.99
2017-01-20T07:19:28.695Z,99.99
2017-01-20T07:20:40.091Z,99.99
2017-01-20T07:21:51.487Z,99.99
2017-01-20T07:23:02.875Z,99.99
2017-01-20T07:24:14.261Z,99.99
2017-01-20T07:25:25.914Z,99.99
2017-01-20T07:26:37.313Z,99.99
2017-01-20T07:27:48.704Z,99.99
2017-01-20T07:29:00.303Z,99.99
2017-01-20T07:30:11.733Z,99.99
2017-01-20T07:31:23.177Z,99.99
2017-01-20T07:32:34.565Z,99.99
2017-01-20T07:33:46.150Z,99.99
2017-01-20T07:34:57.545Z,99.99
2017-01-20T07:36:09.151Z,99.99
2017-01-20T07:37:20.590Z,99.99
2017-01-20T07:38:31.992Z,99.99
2017-01-20T07:39:43.581Z,99.99
2017-01-20T07:40:54.973Z,99.99
2017-01-20T07:42:06.385Z,99.99
2017-01-20T07:43:17.829Z,99.99
2017-01-20T07:44:29.225Z,99.99
2017-01-20T07:45:40.652Z,99.99
2017-01-20T07:46:52.056Z,99.99
2017-01-20T07:48:03.445Z,99.99
2017-01-20T07:49:14.892Z,99.99
2017-01-20T07:50:26.294Z,99.99
2017-01-20T07:51:37.887Z,99.99
2017-01-20T07:52:49.511Z,99.99
2017-01-20T07:54:00.904Z,99.99
2017-01-20T07:55:12.347Z,99.99
2017-01-20T07:56:23.739Z,99.99
2017-01-20T07:57:35.132Z,99.99
2017-01-20T07:58:46.521Z,99.99
2017-01-20T07:59:57.902Z,99.99
2017-01-20T08:01:09.351Z,99.99
2017-01-20T08:02:21.156Z,99.99
2017-01-20T08:03:32.546Z,99.99
2017-01-20T08:04:43.941Z,99.99
2017-01-20T08:05:55.575Z,99.99
2017-01-20T08:07:07.020Z,99.99
2017-01-20T08:08:18.442Z,99.99
2017-01-20T08:09:29.839Z,99.99
2017-01-20T08:10:41.232Z,99.99
2017-01-20T08:11:52.621Z,99.99
2017-01-20T08:13:04.071Z,99.99
2017-01-20T08:14:15.463Z,99.99
2017-01-20T08:15:26.912Z,99.99
2017-01-20T08:16:38.305Z,99.99
2017-01-20T08:17:49.700Z,99.99
2017-01-20T08:19:01.152Z,99.99
2017-01-20T08:20:12.547Z,99.99
2017-01-20T08:21:24.140Z,99.99
2017-01-20T08:22:35.544Z,99.99
2017-01-20T08:23:46.934Z,99.99
2017-01-20T08:24:58.610Z,99.99
2017-01-20T08:26:10.195Z,99.99
2017-01-20T08:27:21.795Z,99.99
2017-01-20T08:28:33.191Z,99.99
2017-01-20T08:29:44.582Z,99.99
2017-01-20T08:30:56.235Z,99.99
2017-01-20T08:32:07.827Z,99.99
2017-01-20T08:33:19.224Z,99.99
2017-01-20T08:34:30.608Z,99.99
2017-01-20T08:35:42.003Z,99.99
2017-01-20T08:36:53.471Z,99.99
2017-01-20T08:38:04.866Z,99.99
2017-01-20T08:39:16.261Z,99.99
2017-01-20T08:40:27.661Z,99.99
2017-01-20T08:41:39.075Z,99.99
2017-01-20T08:42:50.513Z,99.99
2017-01-20T08:44:01.911Z,99.99
2017-01-20T08:45:13.305Z,99.99
2017-01-20T08:46:24.910Z,99.99
2017-01-20T08:47:36.304Z,99.99
2017-01-20T08:48:47.753Z,99.99
2017-01-20T08:49:59.149Z,99.99
2017-01-20T08:51:10.548Z,99.99
2017-01-20T08:52:21.947Z,99.99
2017-01-20T08:53:33.552Z,99.99
2017-01-20T08:54:45.001Z,99.99
2017-01-20T08:55:56.391Z,99.99
2017-01-20T08:57:07.787Z,99.99
2017-01-20T08:58:19.387Z,99.99
2017-01-20T08:59:30.788Z,99.99
2017-01-20T09:00:42.232Z,99.99
2017-01-20T09:01:53.629Z,99.99
2017-01-20T09:03:05.233Z,99.99
2017-01-20T09:04:16.641Z,99.99
2017-01-20T09:05:28.045Z,99.99
2017-01-20T09:06:39.696Z,99.99
2017-01-20T09:07:51.296Z,99.99
2017-01-20T09:09:02.702Z,99.99
2017-01-20T09:10:14.104Z,99.99
2017-01-20T09:11:25.532Z,99.99
2017-01-20T09:12:36.979Z,99.99
2017-01-20T09:13:48.386Z,99.99
2017-01-20T09:14:59.782Z,99.99
2017-01-20T09:16:11.182Z,99.99
2017-01-20T09:17:22.791Z,99.99
2017-01-20T09:18:34.243Z,99.99
2017-01-20T09:19:45.643Z,99.99
2017-01-20T09:20:57.070Z,99.99
2017-01-20T09:22:08.465Z,99.34
2017-01-20T09:23:19.857Z,98.21
2017-01-20T09:24:31.308Z,96.78
2017-01-20T09:25:42.910Z,95.79
2017-01-20T09:26:54.315Z,94.46
2017-01-20T09:28:05.723Z,91.99
2017-01-20T09:29:17.124Z,90.86
2017-01-20T09:30:28.578Z,89.81
2017-01-20T09:31:39.981Z,89.58
2017-01-20T09:32:51.382Z,89.1
2017-01-20T09:34:02.989Z,88.15
2017-01-20T09:35:14.401Z,87.72
2017-01-20T09:36:25.858Z,86.01
2017-01-20T09:37:37.272Z,84.68
2017-01-20T09:38:48.704Z,82.97
2017-01-20T09:40:00.550Z,81.45
2017-01-20T09:41:11.958Z,80.64
2017-01-20T09:42:23.817Z,79.41
2017-01-20T09:43:35.227Z,79.22
2017-01-20T09:44:46.631Z,78.55
2017-01-20T09:45:58.041Z,78.02
2017-01-20T09:47:09.445Z,77.55
2017-01-20T09:48:20.901Z,76.31
2017-01-20T09:49:32.303Z,75.49
2017-01-20T09:50:43.711Z,74.54
2017-01-20T09:51:55.336Z,73.34
2017-01-20T09:53:06.740Z,72.3
2017-01-20T09:54:18.201Z,71.63
2017-01-20T09:55:29.607Z,72.3
2017-01-20T09:56:41.014Z,72.01
2017-01-20T09:57:52.627Z,71.15
2017-01-20T09:59:04.241Z,72.01
2017-01-20T10:00:15.704Z,71.34
2017-01-20T10:01:27.114Z,70.3
2017-01-20T10:02:38.522Z,69.95
2017-01-20T10:03:49.931Z,69.29
2017-01-20T10:05:01.338Z,69.85
2017-01-20T10:06:12.799Z,68.71
2017-01-20T10:07:24.217Z,68.33
2017-01-20T10:08:35.638Z,68.62
2017-01-20T10:09:47.046Z,68.15
2017-01-20T10:10:58.661Z,68.62
2017-01-20T10:12:10.524Z,67.67
2017-01-20T10:13:21.934Z,67
2017-01-20T10:14:33.343Z,67.29
2017-01-20T10:15:44.745Z,67.7
2017-01-20T10:16:56.387Z,66.75
2017-01-20T10:18:07.841Z,64.28
2017-01-20T10:19:19.253Z,64.84
2017-01-20T10:20:30.664Z,64.37
2017-01-20T10:21:42.073Z,64.18
2017-01-20T10:22:53.493Z,64.18
2017-01-20T10:24:05.146Z,63.7
2017-01-20T10:25:16.554Z,64.5
2017-01-20T10:26:27.970Z,64.4
2017-01-20T10:27:39.375Z,64.4
2017-01-20T10:28:50.788Z,63.35
2017-01-20T10:30:02.250Z,62.02
2017-01-20T10:31:13.656Z,62.97
2017-01-20T10:32:25.055Z,62.88
2017-01-20T10:33:36.476Z,63.39
2017-01-20T10:34:48.085Z,61.48
2017-01-20T10:35:59.766Z,61.96
2017-01-20T10:37:11.189Z,59.67
2017-01-20T10:38:22.606Z,56.33
2017-01-20T10:39:34.010Z,56.14
2017-01-20T10:40:45.423Z,53.95
2017-01-20T10:41:56.889Z,57.09
2017-01-20T10:43:08.307Z,59.09
2017-01-20T10:44:19.714Z,58.65
2017-01-20T10:45:31.351Z,55.79
2017-01-20T10:46:42.766Z,52.55
2017-01-20T10:47:54.229Z,50.45
2017-01-20T10:49:05.637Z,53.66
2017-01-20T10:50:17.052Z,53
2017-01-20T10:51:28.459Z,53.56
2017-01-20T10:52:40.076Z,56.02
2017-01-20T10:53:51.539Z,54.37
2017-01-20T10:55:02.948Z,54.94
2017-01-20T10:56:14.372Z,56.18
2017-01-20T10:57:25.780Z,58.25
2017-01-20T10:58:37.190Z,56.53
2017-01-20T10:59:49.258Z,57.87
2017-01-20T11:01:00.671Z,56.15
2017-01-20T11:02:12.083Z,57.2
2017-01-20T11:03:23.516Z,58.53
2017-01-20T11:04:34.922Z,55.49
2017-01-20T11:05:46.387Z,57.39
2017-01-20T11:06:57.796Z,56.92
2017-01-20T11:08:09.210Z,53.58
2017-01-20T11:09:20.624Z,57.1
2017-01-20T11:10:32.032Z,56.24
2017-01-20T11:11:43.500Z,54.66
2017-01-20T11:12:54.910Z,54.56
2017-01-20T11:14:06.310Z,54.27
2017-01-20T11:15:17.915Z,56.27
2017-01-20T11:16:29.524Z,54.47
2017-01-20T11:17:40.986Z,52.75
2017-01-20T11:18:52.397Z,55.42
2017-01-20T11:20:03.812Z,52.4
2017-01-20T11:21:15.232Z,49.82
2017-01-20T11:22:26.642Z,49.73
2017-01-20T11:23:38.098Z,48.78
2017-01-20T11:24:49.511Z,49.92
2017-01-20T11:26:00.932Z,51.28
2017-01-20T11:27:12.338Z,50.52
2017-01-20T11:28:23.757Z,49.85
2017-01-20T11:29:35.228Z,48.52
2017-01-20T11:30:46.640Z,50.32
2017-01-20T11:31:58.055Z,50.87
2017-01-20T11:33:09.471Z,51.47
2017-01-20T11:34:20.881Z,52.3
2017-01-20T11:35:32.546Z,53.25
2017-01-20T11:36:44.159Z,52.87
2017-01-20T11:37:55.570Z,52.2
2017-01-20T11:39:06.977Z,53.13
2017-01-20T11:40:18.589Z,56.85
2017-01-20T11:41:30.250Z,54.94
2017-01-20T11:42:41.670Z,50.49
2017-01-20T11:43:53.086Z,49.99
2017-01-20T11:45:04.500Z,51.42
2017-01-20T11:46:15.900Z,52.66
2017-01-20T11:47:27.311Z,55.7
2017-01-20T11:48:38.734Z,53.61
2017-01-20T11:49:50.140Z,50.18
2017-01-20T11:51:01.552Z,52.94
2017-01-20T11:52:12.969Z,52.47
2017-01-20T11:53:24.627Z,52.84
2017-01-20T11:54:36.037Z,50.75
2017-01-20T11:55:47.445Z,52.66
2017-01-20T11:56:59.048Z,54.27
2017-01-20T11:58:10.710Z,59.7
2017-01-20T11:59:22.315Z,59.32
2017-01-20T12:00:33.724Z,58.02
2017-01-20T12:01:45.129Z,60.21
2017-01-20T12:02:56.531Z,58.5
2017-01-20T12:04:08.191Z,56.21
2017-01-20T12:05:19.598Z,58.21
2017-01-20T12:06:31.014Z,58.33
2017-01-20T12:07:42.617Z,57.19
2017-01-20T12:08:54.020Z,56.9
2017-01-20T12:10:05.683Z,57.7
2017-01-20T12:11:17.092Z,59.31
2017-01-20T12:12:28.706Z,58.26
2017-01-20T12:13:40.125Z,57.82
2017-01-20T12:14:51.534Z,57.92
2017-01-20T12:16:03.013Z,55.53
2017-01-20T12:17:14.623Z,56.58
2017-01-20T12:18:26.031Z,57.82
2017-01-20T12:19:37.444Z,58.36
2017-01-20T12:20:48.858Z,58.46
2017-01-20T12:22:00.348Z,60.08
2017-01-20T12:23:11.762Z,59.79
2017-01-20T12:24:23.163Z,60.17
2017-01-20T12:25:34.573Z,59.31
2017-01-20T12:26:45.988Z,59.79
2017-01-20T12:27:57.649Z,60.17
2017-01-20T12:29:09.086Z,58.17
2017-01-20T12:30:20.495Z,58.07
2017-01-20T12:31:31.905Z,60.55
2017-01-20T12:32:43.312Z,58.65
2017-01-20T12:33:54.776Z,55.88
2017-01-20T12:35:06.178Z,59.22
2017-01-20T12:36:17.579Z,58.26
2017-01-20T12:37:28.984Z,57.31
2017-01-20T12:38:40.391Z,56.46
2017-01-20T12:39:51.851Z,60.33
2017-01-20T12:41:03.494Z,59.86
2017-01-20T12:42:14.909Z,57.09
2017-01-20T12:43:26.335Z,56.9
2017-01-20T12:44:37.740Z,54.9
2017-01-20T12:45:49.204Z,54.14
2017-01-20T12:47:00.608Z,55.66
2017-01-20T12:48:12.022Z,54.9
2017-01-20T12:49:23.425Z,55.09
2017-01-20T12:50:35.048Z,58.62
2017-01-20T12:51:46.500Z,57.95
2017-01-20T12:52:57.903Z,57
2017-01-20T12:54:09.309Z,56.33
2017-01-20T12:55:20.918Z,53.38
2017-01-20T12:56:32.331Z,55.76
2017-01-20T12:57:44.001Z,58.36
2017-01-20T12:58:55.413Z,59.12
2017-01-20T13:00:07.027Z,56.46
2017-01-20T13:01:18.433Z,57.22
2017-01-20T13:02:29.847Z,59.44
2017-01-20T13:03:41.316Z,57.92
2017-01-20T13:04:52.730Z,57.06
2017-01-20T13:06:04.141Z,58.48
2017-01-20T13:07:15.558Z,55.82
2017-01-20T13:08:26.957Z,51.81
2017-01-20T13:09:38.414Z,52
2017-01-20T13:10:49.822Z,54.26
2017-01-20T13:12:01.229Z,59.03
2017-01-20T13:13:12.835Z,55.21
2017-01-20T13:14:24.246Z,54.83
2017-01-20T13:15:35.724Z,58.65
2017-01-20T13:16:47.127Z,59.31
2017-01-20T13:17:58.538Z,58.36
2017-01-20T13:19:10.147Z,56.84
2017-01-20T13:20:21.581Z,56.07
2017-01-20T13:21:33.032Z,55.57
2017-01-20T13:22:44.439Z,56.04
2017-01-20T13:23:55.848Z,56.9
2017-01-20T13:25:07.252Z,58.07
2017-01-20T13:26:18.664Z,57.76
2017-01-20T13:27:30.315Z,57.86
2017-01-20T13:28:41.928Z,57.95
2017-01-20T13:29:53.336Z,55.09
2017-01-20T13:31:04.744Z,52.61
2017-01-20T13:32:16.156Z,55.28
2017-01-20T13:33:27.816Z,56.52
2017-01-20T13:34:39.216Z,56.33
2017-01-20T13:35:50.622Z,55.73
2017-01-20T13:37:02.031Z,57.07
2017-01-20T13:38:13.435Z,50.87
2017-01-20T13:39:24.921Z,48.85
2017-01-20T13:40:36.320Z,49.13
2017-01-20T13:41:47.728Z,52.66
2017-01-20T13:42:59.143Z,53.99
2017-01-20T13:44:10.540Z,50.75
2017-01-20T13:45:22.000Z,53.01
2017-01-20T13:46:33.420Z,54.25
2017-01-20T13:47:44.822Z,54.91
2017-01-20T13:48:56.467Z,53.3
2017-01-20T13:50:08.079Z,53.84
2017-01-20T13:51:19.534Z,55.17
2017-01-20T13:52:30.968Z,56.41
2017-01-20T13:53:42.378Z,56.51
2017-01-20T13:54:53.791Z,56.98
2017-01-20T13:56:05.197Z,56.31
2017-01-20T13:57:16.664Z,56.41
2017-01-20T13:58:28.070Z,58.22
2017-01-20T13:59:39.678Z,55.62
2017-01-20T14:00:51.088Z,56.19
2017-01-20T14:02:02.490Z,57.14
2017-01-20T14:03:13.940Z,59.2
2017-01-20T14:04:25.353Z,60.06
2017-01-20T14:05:36.958Z,59.11
2017-01-20T14:06:48.366Z,61.01
2017-01-20T14:07:59.777Z,61.29
2017-01-20T14:09:11.245Z,57.21
2017-01-20T14:10:22.646Z,59.01
2017-01-20T14:11:34.047Z,61.96
2017-01-20T14:12:45.451Z,64.72
2017-01-20T14:13:56.852Z,62.34
2017-01-20T14:15:08.309Z,61.83
2017-01-20T14:16:19.709Z,64.49
2017-01-20T14:17:31.107Z,65.54
2017-01-20T14:18:42.709Z,63.73
2017-01-20T14:19:54.324Z,63.54
2017-01-20T14:21:05.776Z,63.35
2017-01-20T14:22:17.183Z,65.16
2017-01-20T14:23:28.584Z,64.11
2017-01-20T14:24:40.199Z,64.3
2017-01-20T14:25:51.600Z,68.29
2017-01-20T14:27:03.049Z,67.34
2017-01-20T14:28:14.484Z,67.34
2017-01-20T14:29:25.886Z,69.81
2017-01-20T14:30:37.286Z,73.14
2017-01-20T14:31:48.889Z,68.48
2017-01-20T14:33:00.343Z,70.19
2017-01-20T14:34:11.746Z,70.19
2017-01-20T14:35:23.150Z,68.1
2017-01-20T14:36:34.786Z,68.1
2017-01-20T14:37:46.191Z,69.68
2017-01-20T14:38:57.636Z,72.15
2017-01-20T14:40:09.243Z,74.05
2017-01-20T14:41:20.639Z,71.48
2017-01-20T14:42:32.040Z,73.1
2017-01-20T14:43:43.466Z,75.19
2017-01-20T14:44:54.920Z,74.43
2017-01-20T14:46:06.320Z,71.86
2017-01-20T14:47:17.722Z,74.33
2017-01-20T14:48:29.122Z,76.14
2017-01-20T14:49:40.525Z,76.9
2017-01-20T14:50:51.982Z,74.33
2017-01-20T14:52:03.415Z,74.52
2017-01-20T14:53:14.815Z,76.9
2017-01-20T14:54:26.220Z,78.51
2017-01-20T14:55:37.827Z,78.7
2017-01-20T14:56:49.287Z,74.52
2017-01-20T14:58:00.698Z,76.42
2017-01-20T14:59:12.107Z,80.32
2017-01-20T15:00:23.523Z,80.69
2017-01-20T15:01:34.936Z,79.55
2017-01-20T15:02:46.389Z,80.79
2017-01-20T15:03:57.801Z,79.94
2017-01-20T15:05:09.207Z,81.23
2017-01-20T15:06:20.606Z,78.28
2017-01-20T15:07:32.011Z,77.52
2017-01-20T15:08:43.455Z,76.95
2017-01-20T15:09:54.861Z,77.33
2017-01-20T15:11:06.271Z,79.04
2017-01-20T15:12:17.672Z,79.8
2017-01-20T15:13:29.274Z,80.37
2017-01-20T15:14:40.728Z,81.04
2017-01-20T15:15:52.126Z,82.17
2017-01-20T15:17:03.530Z,79.99
2017-01-20T15:18:14.941Z,75.91
2017-01-20T15:19:26.546Z,75.62
2017-01-20T15:20:38.002Z,77.71
2017-01-20T15:21:49.597Z,80.37